createdAt,value
2022-07-28T00:04:44.184Z,101566.09
2022-07-28T00:10:32.314Z,101568.00
2022-07-28T00:16:19.542Z,101570.47
2022-07-28T00:22:07.410Z,101556.06
2022-07-28T00:27:57.016Z,101566.81
2022-07-28T00:33:43.922Z,101571.47
2022-07-28T00:39:30.650Z,101553.81
2022-07-28T00:45:17.351Z,101554.69
2022-07-28T00:51:04.386Z,101539.44
2022-07-28T00:56:53.159Z,101530.13
2022-07-28T01:02:40.181Z,101533.00
2022-07-28T01:08:40.928Z,101529.75
2022-07-28T01:14:38.373Z,101529.75
2022-07-28T01:20:46.910Z,101527.75
2022-07-28T01:26:57.923Z,101518.22
2022-07-28T01:32:56.161Z,101510.91
2022-07-28T01:38:43.999Z,101505.88
2022-07-28T01:44:34.655Z,101507.16
2022-07-28T01:50:23.563Z,101508.22
2022-07-28T01:56:15.678Z,101496.75
2022-07-28T02:02:05.560Z,101498.06
2022-07-28T02:07:54.832Z,101488.47
2022-07-28T02:13:43.708Z,101490.34
2022-07-28T02:19:33.160Z,101483.81
2022-07-28T02:25:21.536Z,101486.47
2022-07-28T02:31:14.558Z,101483.19
2022-07-28T02:37:03.087Z,101476.09
2022-07-28T02:42:53.056Z,101480.50
2022-07-28T02:48:46.441Z,101481.00
2022-07-28T02:54:35.189Z,101472.88
2022-07-28T03:00:25.040Z,101467.94
2022-07-28T03:06:12.776Z,101472.44
2022-07-28T03:11:59.438Z,101460.78
2022-07-28T03:17:46.422Z,101468.28
2022-07-28T03:23:48.377Z,101460.19
2022-07-28T03:29:38.356Z,101477.19
2022-07-28T03:35:25.939Z,101468.25
2022-07-28T03:41:15.068Z,101470.16
2022-07-28T03:47:03.299Z,101468.91
2022-07-28T03:52:50.232Z,101475.28
2022-07-28T03:58:37.406Z,101470.72
2022-07-28T04:04:24.305Z,101466.84
2022-07-28T04:10:14.540Z,101459.59
2022-07-28T04:16:01.355Z,101466.84
2022-07-28T04:21:48.137Z,101464.69
2022-07-28T04:27:36.364Z,101458.72
2022-07-28T04:33:23.555Z,101465.09
2022-07-28T04:39:17.518Z,101452.78
2022-07-28T04:45:06.592Z,101455.56
2022-07-28T04:50:55.362Z,101448.78
2022-07-28T04:56:42.251Z,101450.09
2022-07-28T05:02:35.504Z,101447.25
2022-07-28T05:08:25.433Z,101459.06
2022-07-28T05:14:14.066Z,101456.81
2022-07-28T05:20:01.083Z,101455.19
2022-07-28T05:25:54.791Z,101457.44
2022-07-28T05:31:44.248Z,101467.75
2022-07-28T05:37:35.039Z,101457.72
2022-07-28T05:43:21.851Z,101456.19
2022-07-28T05:49:09.658Z,101456.00
2022-07-28T05:54:56.565Z,101443.47
2022-07-28T06:00:43.927Z,101434.69
2022-07-28T06:06:34.669Z,101447.78
2022-07-28T06:12:21.406Z,101442.88
2022-07-28T06:18:08.486Z,101444.41
2022-07-28T06:23:56.256Z,101442.28
2022-07-28T06:29:47.167Z,101436.19
2022-07-28T06:35:43.119Z,101444.41
2022-07-28T06:41:41.585Z,101445.56
2022-07-28T06:47:29.539Z,101441.13
2022-07-28T06:53:33.971Z,101443.53
2022-07-28T06:59:23.626Z,101436.72
2022-07-28T07:05:31.351Z,101444.28
2022-07-28T07:11:27.287Z,101437.38
2022-07-28T07:17:42.207Z,101434.66
2022-07-28T07:23:30.456Z,101437.81
2022-07-28T07:29:23.779Z,101442.72
2022-07-28T07:35:14.609Z,101433.22
2022-07-28T07:41:04.382Z,101427.75
2022-07-28T07:46:54.237Z,101419.06
2022-07-28T07:52:50.455Z,101402.22
2022-07-28T07:58:37.399Z,101403.28
2022-07-28T08:04:25.699Z,101407.22
2022-07-28T08:10:16.635Z,101408.94
2022-07-28T08:16:05.088Z,101407.88
2022-07-28T08:21:52.783Z,101411.03
2022-07-28T08:27:46.083Z,101405.81
2022-07-28T08:33:53.464Z,101401.00
2022-07-28T08:40:10.013Z,101411.16
2022-07-28T08:45:59.087Z,101395.94
2022-07-28T08:51:50.762Z,101398.50
2022-07-28T08:57:45.568Z,101394.72
2022-07-28T09:03:36.482Z,101396.13
2022-07-28T09:09:25.076Z,101391.34
2022-07-28T09:15:13.640Z,101389.63
2022-07-28T09:21:03.321Z,101366.25
2022-07-28T09:27:11.911Z,101375.47
2022-07-28T09:33:42.572Z,101374.25
2022-07-28T09:39:35.868Z,101375.25
2022-07-28T09:45:31.586Z,101376.03
2022-07-28T09:51:54.742Z,101367.91
2022-07-28T09:57:45.954Z,101373.47
2022-07-28T10:03:44.215Z,101374.91
2022-07-28T10:09:31.122Z,101357.06
2022-07-28T10:15:38.821Z,101368.41
2022-07-28T10:22:01.796Z,101360.09
2022-07-28T10:28:02.661Z,101369.59
2022-07-28T10:33:55.612Z,101375.22
2022-07-28T10:39:48.320Z,101362.88
2022-07-28T10:46:04.453Z,101355.16
2022-07-28T10:52:19.673Z,101357.34
2022-07-28T10:58:19.073Z,101351.28
2022-07-28T11:04:45.148Z,101367.53
2022-07-28T11:10:58.927Z,101353.91
2022-07-28T11:17:04.708Z,101348.06
2022-07-28T11:22:54.352Z,101338.91
2022-07-28T11:29:08.428Z,101358.47
2022-07-28T11:35:13.698Z,101342.84
2022-07-28T11:41:32.503Z,101349.97
2022-07-28T11:47:26.059Z,101351.84
2022-07-28T11:53:13.806Z,101344.44
2022-07-28T11:59:04.193Z,101350.25
2022-07-28T12:05:11.867Z,101344.50
2022-07-28T12:10:58.902Z,101351.63
2022-07-28T12:16:51.138Z,101341.25
2022-07-28T12:22:38.501Z,101343.13
2022-07-28T12:28:29.636Z,101332.09
2022-07-28T12:34:16.924Z,101346.13
2022-07-28T12:40:06.330Z,101335.06
2022-07-28T12:45:59.809Z,101335.28
2022-07-28T12:51:48.936Z,101329.91
2022-07-28T12:57:49.349Z,101333.94
2022-07-28T13:03:49.470Z,101333.84
2022-07-28T13:09:53.226Z,101339.97
2022-07-28T13:16:13.272Z,101328.72
2022-07-28T13:22:03.005Z,101325.69
2022-07-28T13:27:55.411Z,101329.19
2022-07-28T13:33:45.564Z,101344.84
2022-07-28T13:39:32.362Z,101338.00
2022-07-28T13:45:21.417Z,101345.78
2022-07-28T13:51:14.055Z,101345.31
2022-07-28T13:57:14.685Z,101340.78
2022-07-28T14:03:13.055Z,101343.72
2022-07-28T14:09:04.452Z,101340.16
2022-07-28T14:14:57.506Z,101345.69
2022-07-28T14:20:45.917Z,101335.38
2022-07-28T14:26:46.259Z,101340.34
2022-07-28T14:32:41.702Z,101335.94
2022-07-28T14:38:51.826Z,101346.88
2022-07-28T14:44:36.515Z,101337.78
2022-07-28T14:50:24.129Z,101335.44
2022-07-28T14:56:15.211Z,101350.78
2022-07-28T15:02:02.078Z,101341.75
2022-07-28T15:07:52.323Z,101331.72
2022-07-28T15:13:40.249Z,101328.59
2022-07-28T15:19:27.562Z,101336.19
2022-07-28T15:25:14.505Z,101338.63
2022-07-28T15:31:14.062Z,101336.28
2022-07-28T15:37:14.105Z,101342.53
2022-07-28T15:43:01.289Z,101339.09
2022-07-28T15:48:48.171Z,101328.50
2022-07-28T15:54:35.158Z,101334.66
2022-07-28T16:00:22.037Z,101335.06
2022-07-28T16:06:09.073Z,101351.94
2022-07-28T16:11:56.745Z,101334.69
2022-07-28T16:17:44.251Z,101348.47
2022-07-28T16:23:36.214Z,101356.31
2022-07-28T16:29:27.861Z,101360.88
2022-07-28T16:35:15.101Z,101354.19
2022-07-28T16:41:02.255Z,101356.94
2022-07-28T16:46:50.111Z,101349.41
2022-07-28T16:52:37.219Z,101336.88
2022-07-28T16:58:26.716Z,101352.78
2022-07-28T17:04:16.374Z,101366.13
2022-07-28T17:10:11.437Z,101356.88
2022-07-28T17:15:59.817Z,101367.34
2022-07-28T17:21:47.279Z,101365.94
2022-07-28T17:27:38.205Z,101374.06
2022-07-28T17:33:34.682Z,101367.16
2022-07-28T17:39:23.776Z,101365.56
2022-07-28T17:45:27.092Z,101370.97
2022-07-28T17:51:14.484Z,101379.69
2022-07-28T17:57:01.577Z,101377.94
2022-07-28T18:02:50.788Z,101378.84
2022-07-28T18:08:40.667Z,101377.03
2022-07-28T18:14:54.728Z,101384.13
2022-07-28T18:20:45.579Z,101393.66
2022-07-28T18:26:36.596Z,101397.69
2022-07-28T18:32:29.151Z,101394.09
2022-07-28T18:38:23.212Z,101410.16
2022-07-28T18:44:14.091Z,101405.50
2022-07-28T18:50:08.302Z,101417.25
2022-07-28T18:56:14.487Z,101406.97
2022-07-28T19:02:03.372Z,101408.22
2022-07-28T19:07:50.299Z,101401.19
2022-07-28T19:13:37.253Z,101420.94
2022-07-28T19:19:24.470Z,101423.16
2022-07-28T19:25:13.571Z,101421.06
2022-07-28T19:31:10.673Z,101431.25
2022-07-28T19:36:58.506Z,101440.34
2022-07-28T19:42:47.193Z,101439.31
2022-07-28T19:48:34.416Z,101453.59
2022-07-28T19:54:21.655Z,101457.56
2022-07-28T20:00:12.834Z,101456.63
2022-07-28T20:05:59.757Z,101470.50
2022-07-28T20:11:50.680Z,101472.38
2022-07-28T20:17:41.728Z,101487.25
2022-07-28T20:23:31.904Z,101486.47
2022-07-28T20:29:21.462Z,101483.44
2022-07-28T20:35:12.406Z,101489.31
2022-07-28T20:41:00.443Z,101492.28
2022-07-28T20:47:14.450Z,101495.72
2022-07-28T20:53:10.069Z,101500.66
2022-07-28T20:59:00.547Z,101508.16
2022-07-28T21:04:53.113Z,101502.81
2022-07-28T21:10:50.507Z,101505.78
2022-07-28T21:16:47.523Z,101500.50
2022-07-28T21:23:31.705Z,101500.56
2022-07-28T21:35:14.074Z,101517.03
2022-07-28T21:41:36.633Z,101506.41
2022-07-28T21:47:23.872Z,101501.47
2022-07-28T21:53:16.998Z,101505.84
2022-07-28T21:59:08.604Z,101510.41
2022-07-28T22:05:11.564Z,101509.84
2022-07-28T22:11:12.268Z,101515.59
2022-07-28T22:17:22.675Z,101514.28
2022-07-28T22:23:29.482Z,101513.91
2022-07-28T22:29:17.280Z,101517.38
2022-07-28T22:35:04.633Z,101519.47
2022-07-28T22:40:54.408Z,101516.78
2022-07-28T22:46:44.158Z,101525.53
2022-07-28T22:52:31.126Z,101532.53
2022-07-28T22:58:18.178Z,101530.91
2022-07-28T23:04:06.349Z,101534.06
2022-07-28T23:09:58.568Z,101537.56
2022-07-28T23:15:45.602Z,101528.75
2022-07-28T23:21:32.331Z,101536.38
2022-07-28T23:27:19.238Z,101541.16
2022-07-28T23:33:07.821Z,101547.41
2022-07-28T23:38:58.961Z,101541.28
2022-07-28T23:44:45.953Z,101540.16
2022-07-28T23:50:32.764Z,101550.25
2022-07-28T23:56:19.594Z,101548.31
